Time;durP1;ratioP1;P1;durP2;ratioP2;P2;SDS_P1;SDS_P2;PMS_P1;PMS_P2;Temp;Humidity;BMP_temperature;BMP_pressure;BME280_temperature;BME280_humidity;BME280_pressure;Samples;Min_cycle;Max_cycle;Signal;HPM_P1;HPM_P2
2022/02/07 00:02:19;;;;;;;1.70;0.60;;;3.30;99.90;;;;;;5072369;28;20833;-65
2022/02/07 00:04:47;;;;;;;1.50;0.60;;;3.30;99.90;;;;;;5056260;28;20563;-65
2022/02/07 00:07:17;;;;;;;1.63;0.57;;;3.40;99.90;;;;;;5070709;28;20452;-65
2022/02/07 00:09:46;;;;;;;1.50;0.50;;;3.40;99.90;;;;;;5071912;28;20840;-65
2022/02/07 00:12:13;;;;;;;3.00;0.60;;;3.40;99.90;;;;;;5071542;28;20554;-66
2022/02/07 00:14:40;;;;;;;1.50;0.50;;;3.50;99.90;;;;;;5071086;28;20443;-66
2022/02/07 00:17:07;;;;;;;3.10;0.70;;;3.50;99.90;;;;;;5070389;28;20490;-66
2022/02/07 00:19:34;;;;;;;2.40;0.70;;;3.50;99.90;;;;;;5071210;28;20447;-66
2022/02/07 00:22:03;;;;;;;2.47;1.10;;;3.60;99.90;;;;;;5071545;28;20447;-66
2022/02/07 00:24:30;;;;;;;2.00;0.60;;;3.70;99.90;;;;;;5071508;28;20451;-65
2022/02/07 00:26:58;;;;;;;2.57;0.70;;;3.80;99.90;;;;;;5071603;28;20469;-66
2022/02/07 00:29:25;;;;;;;2.33;0.50;;;3.90;99.90;;;;;;5071745;28;20538;-65
2022/02/07 00:31:52;;;;;;;1.47;0.50;;;4.00;99.90;;;;;;5071670;28;20966;-65
2022/02/07 00:34:19;;;;;;;1.60;0.60;;;4.00;99.90;;;;;;5071334;28;20947;-65
2022/02/07 00:36:47;;;;;;;1.70;0.70;;;4.00;99.90;;;;;;5071361;28;20483;-65
2022/02/07 00:39:20;;;;;;;2.17;0.70;;;4.10;99.90;;;;;;5070768;28;20505;-65
2022/02/07 00:41:51;;;;;;;2.43;0.70;;;4.10;99.90;;;;;;5071292;28;20458;-65
2022/02/07 00:44:20;;;;;;;1.50;0.67;;;4.00;99.90;;;;;;5071496;28;20451;-65
2022/02/07 00:46:51;;;;;;;1.90;0.60;;;4.00;99.90;;;;;;5070970;28;20871;-65
2022/02/07 00:49:18;;;;;;;1.50;0.70;;;4.00;99.90;;;;;;5070878;28;20513;-65
2022/02/07 00:51:47;;;;;;;1.50;0.60;;;4.00;99.90;;;;;;5071050;28;20537;-65
2022/02/07 00:54:14;;;;;;;3.13;0.70;;;3.90;99.90;;;;;;5071409;28;20480;-65
2022/02/07 00:56:41;;;;;;;2.37;0.70;;;3.90;99.90;;;;;;5071146;28;21007;-65
2022/02/07 00:59:08;;;;;;;1.40;0.53;;;3.90;99.90;;;;;;5069698;28;20463;-66
2022/02/07 01:01:37;;;;;;;1.97;0.90;;;3.90;99.90;;;;;;5070878;28;21031;-64
2022/02/07 01:04:04;;;;;;;1.90;0.60;;;3.90;99.90;;;;;;5070868;28;20454;-65
2022/02/07 01:06:31;;;;;;;1.80;0.60;;;3.90;99.90;;;;;;5071324;28;20966;-65
2022/02/07 01:09:11;;;;;;;4.23;1.27;;;3.90;99.90;;;;;;5070687;28;20512;-68
2022/02/07 01:11:53;;;;;;;1.63;0.70;;;3.90;99.90;;;;;;5071289;28;20450;-65
2022/02/07 01:14:32;;;;;;;3.20;0.70;;;3.80;99.90;;;;;;5070575;28;20497;-66
2022/02/07 01:20:09;;;;;;;1.50;0.60;;;3.90;99.90;;;;;;5066643;28;20526;-65
2022/02/07 01:47:40;;;;;;;2.67;0.70;;;4.00;99.90;;;;;;5069825;28;20477;-65
2022/02/07 01:50:49;;;;;;;2.20;0.53;;;4.00;99.90;;;;;;5070333;28;20451;-65
2022/02/07 01:53:27;;;;;;;1.90;0.70;;;4.10;99.90;;;;;;5070497;28;20451;-64
2022/02/07 01:55:57;;;;;;;1.40;0.50;;;4.20;99.90;;;;;;5070096;28;20455;-65
2022/02/07 01:58:25;;;;;;;1.60;0.67;;;4.20;99.90;;;;;;5069731;28;20475;-65
2022/02/07 02:00:53;;;;;;;1.90;0.70;;;4.30;99.90;;;;;;5070197;28;20546;-65
2022/02/07 02:03:20;;;;;;;1.60;0.80;;;4.30;99.90;;;;;;5069912;28;20451;-64
2022/02/07 02:05:48;;;;;;;3.30;0.80;;;4.40;99.90;;;;;;5069933;28;20458;-66
2022/02/07 02:08:16;;;;;;;1.60;0.60;;;4.40;99.90;;;;;;5069300;28;20546;-64
2022/02/07 02:10:45;;;;;;;1.87;0.70;;;4.30;99.90;;;;;;5069375;28;20451;-65
2022/02/07 02:13:15;;;;;;;3.00;0.70;;;4.40;99.90;;;;;;5069635;28;20451;-66
2022/02/07 02:15:48;;;;;;;2.03;0.70;;;4.30;99.90;;;;;;5069599;28;20451;-65
2022/02/07 02:37:54;;;;;;;1.70;0.77;;;4.30;99.90;;;;;;5026229;28;21001;-65
2022/02/07 02:46:02;;;;;;;2.77;1.10;;;4.30;99.90;;;;;;5068987;28;20463;-65
2022/02/07 02:48:30;;;;;;;2.00;0.80;;;4.20;99.90;;;;;;5068552;28;20550;-65
2022/02/07 02:51:06;;;;;;;1.80;0.80;;;4.30;99.90;;;;;;5069489;28;20493;-64
2022/02/07 02:53:33;;;;;;;2.90;0.70;;;4.30;99.90;;;;;;5069449;28;20512;-65
2022/02/07 02:56:01;;;;;;;1.80;0.87;;;4.40;99.90;;;;;;5069227;28;21042;-64
2022/02/07 02:58:28;;;;;;;3.63;1.30;;;4.30;99.90;;;;;;5068918;28;20526;-65
2022/02/07 03:00:55;;;;;;;4.30;0.80;;;4.20;99.90;;;;;;5069423;28;20447;-65
2022/02/07 03:03:22;;;;;;;3.10;1.00;;;4.10;99.90;;;;;;5069287;28;20458;-64
2022/02/07 03:05:50;;;;;;;2.70;0.90;;;3.90;99.90;;;;;;5068994;28;20535;-65
2022/02/07 03:08:19;;;;;;;2.33;0.90;;;3.80;99.90;;;;;;5068766;28;20505;-65
2022/02/07 03:10:57;;;;;;;3.50;1.13;;;3.70;99.90;;;;;;5069656;28;20451;-65
2022/02/07 03:13:46;;;;;;;3.80;1.40;;;3.60;99.90;;;;;;5069217;28;21138;-65
2022/02/07 03:18:58;;;;;;;2.13;1.00;;;3.20;99.90;;;;;;5069251;28;20588;-64
2022/02/07 03:21:25;;;;;;;2.10;1.00;;;3.20;99.90;;;;;;5068975;28;20447;-64
2022/02/07 03:23:52;;;;;;;2.33;1.00;;;3.20;99.90;;;;;;5072230;28;20828;-65
2022/02/07 03:26:20;;;;;;;2.37;1.00;;;3.20;99.90;;;;;;5072712;28;20446;-66
2022/02/07 03:28:49;;;;;;;4.53;1.50;;;3.20;99.90;;;;;;5072018;28;20517;-64
2022/02/07 03:31:16;;;;;;;4.73;1.30;;;3.20;99.90;;;;;;5072451;28;20473;-65
2022/02/07 03:33:43;;;;;;;2.00;0.90;;;3.20;99.90;;;;;;5072445;28;20451;-64
2022/02/07 03:36:12;;;;;;;2.20;0.77;;;3.00;99.90;;;;;;5072193;28;20958;-64
2022/02/07 03:38:40;;;;;;;2.07;0.60;;;2.60;99.90;;;;;;5072160;28;20463;-65
2022/02/07 03:41:08;;;;;;;3.40;0.97;;;2.40;99.90;;;;;;5072256;28;20490;-65
2022/02/07 03:43:35;;;;;;;3.97;0.70;;;2.40;99.90;;;;;;5072363;28;21030;-65
2022/02/07 03:46:04;;;;;;;2.03;0.90;;;2.30;99.90;;;;;;5072236;28;20459;-65
2022/02/07 03:48:31;;;;;;;1.80;0.90;;;2.30;99.90;;;;;;5072046;28;20479;-66
2022/02/07 03:50:58;;;;;;;6.30;0.70;;;2.30;99.90;;;;;;5072308;28;20443;-65
2022/02/07 03:53:25;;;;;;;2.47;0.90;;;2.20;99.90;;;;;;5072363;28;20449;-65
2022/02/07 03:55:52;;;;;;;1.80;0.77;;;2.30;99.90;;;;;;5072281;28;20534;-65
2022/02/07 03:58:22;;;;;;;2.57;0.80;;;2.30;99.90;;;;;;5072020;28;20491;-65
2022/02/07 04:00:49;;;;;;;1.60;0.70;;;2.40;99.90;;;;;;5072065;28;20447;-65
2022/02/07 04:03:21;;;;;;;1.97;0.80;;;2.40;99.90;;;;;;5072110;28;20446;-65
2022/02/07 04:05:50;;;;;;;3.00;1.10;;;2.40;99.90;;;;;;5072203;28;20455;-64
2022/02/07 04:08:19;;;;;;;1.60;0.60;;;2.40;99.90;;;;;;5071972;28;20497;-65
2022/02/07 04:10:57;;;;;;;2.00;0.80;;;2.40;99.90;;;;;;5072226;28;20861;-65
2022/02/07 04:13:29;;;;;;;1.90;0.70;;;2.30;99.90;;;;;;5071979;28;20820;-65
2022/02/07 04:15:56;;;;;;;2.80;0.87;;;2.30;99.90;;;;;;5071807;28;20446;-65
2022/02/07 04:18:32;;;;;;;4.27;0.87;;;2.20;99.90;;;;;;5070052;28;21019;-64
2022/02/07 04:20:59;;;;;;;2.27;0.90;;;2.20;99.90;;;;;;5051660;28;20967;-65
2022/02/07 04:23:25;;;;;;;2.53;0.60;;;2.20;99.90;;;;;;5051587;28;20945;-66
2022/02/07 04:25:52;;;;;;;1.60;0.70;;;2.10;99.90;;;;;;5051624;28;20952;-65
2022/02/07 04:28:19;;;;;;;3.10;0.87;;;2.10;99.90;;;;;;5050760;28;20543;-67
2022/02/07 04:30:46;;;;;;;2.97;1.00;;;2.10;99.90;;;;;;5051515;28;20450;-65
2022/02/07 04:33:13;;;;;;;3.77;1.03;;;2.10;99.90;;;;;;5051146;28;20440;-66
2022/02/07 04:35:41;;;;;;;2.67;0.80;;;2.10;99.90;;;;;;5051384;28;20440;-65
2022/02/07 04:38:08;;;;;;;2.17;0.90;;;2.20;99.90;;;;;;5050730;28;20484;-66
2022/02/07 04:40:35;;;;;;;2.23;0.90;;;2.30;99.90;;;;;;5051163;28;20444;-65
2022/02/07 04:43:02;;;;;;;1.90;0.80;;;2.30;99.90;;;;;;5050903;28;20934;-65
2022/02/07 04:45:46;;;;;;;2.43;0.80;;;2.30;99.90;;;;;;5050732;28;20462;-65
2022/02/07 04:48:32;;;;;;;4.00;1.00;;;2.30;99.90;;;;;;5050925;28;20490;-65
2022/02/07 04:51:26;;;;;;;2.77;0.67;;;2.30;99.90;;;;;;5051123;28;20454;-66
2022/02/07 04:54:09;;;;;;;1.60;0.77;;;2.30;99.90;;;;;;5051225;28;20448;-65
2022/02/07 04:59:25;;;;;;;1.93;0.80;;;2.30;99.90;;;;;;5050544;28;20482;-66
2022/02/07 05:01:56;;;;;;;1.60;0.70;;;2.20;99.90;;;;;;5050476;28;20475;-66
2022/02/07 05:04:29;;;;;;;4.50;1.00;;;2.20;99.90;;;;;;5050678;28;20502;-66
2022/02/07 05:15:10;;;;;;;3.90;1.70;;;2.20;99.90;;;;;;5050370;28;20415;-66
2022/02/07 05:17:39;;;;;;;3.93;1.17;;;2.30;99.90;;;;;;5049948;28;20520;-66
2022/02/07 05:20:08;;;;;;;5.37;1.50;;;2.30;99.90;;;;;;5050260;28;20443;-66
2022/02/07 05:22:38;;;;;;;5.47;1.27;;;2.30;99.90;;;;;;5050096;28;20452;-66
2022/02/07 05:25:06;;;;;;;3.13;1.10;;;2.30;99.90;;;;;;5050401;28;20499;-66
2022/02/07 05:27:33;;;;;;;3.00;1.30;;;2.30;99.90;;;;;;5049525;28;20996;-66
2022/02/07 05:30:01;;;;;;;4.47;1.10;;;2.40;99.90;;;;;;5050103;28;20452;-66
2022/02/07 05:32:28;;;;;;;5.93;1.40;;;2.30;99.90;;;;;;5050440;28;20885;-66
2022/02/07 05:34:55;;;;;;;3.73;1.10;;;2.40;99.90;;;;;;5050082;28;20451;-68
2022/02/07 05:37:22;;;;;;;2.83;1.17;;;2.50;99.90;;;;;;5050066;28;20490;-67
2022/02/07 05:39:55;;;;;;;3.33;1.03;;;2.60;99.90;;;;;;5050177;28;20456;-68
2022/02/07 05:42:22;;;;;;;6.00;1.70;;;2.60;99.90;;;;;;5050145;28;20491;-65
2022/02/07 05:44:49;;;;;;;4.83;1.20;;;2.60;99.90;;;;;;5049743;28;20456;-68
2022/02/07 05:47:16;;;;;;;3.70;1.67;;;2.70;99.90;;;;;;5049903;28;20483;-66
2022/02/07 05:49:44;;;;;;;2.30;1.40;;;2.60;99.90;;;;;;5059500;28;20532;-66
2022/02/07 05:52:11;;;;;;;3.10;1.13;;;2.50;99.90;;;;;;5069978;28;20450;-66
2022/02/07 05:54:37;;;;;;;6.27;2.47;;;2.50;99.90;;;;;;5067975;28;20439;-67
2022/02/07 05:57:07;;;;;;;3.57;1.07;;;2.50;99.90;;;;;;5066404;28;20562;-66
2022/02/07 05:59:33;;;;;;;6.00;1.27;;;2.50;99.90;;;;;;5069042;28;20526;-67
2022/02/07 06:02:00;;;;;;;4.60;1.17;;;2.50;99.90;;;;;;5066371;28;20443;-66
2022/02/07 06:04:27;;;;;;;4.57;1.03;;;2.60;99.90;;;;;;5068952;28;20533;-66
2022/02/07 06:06:55;;;;;;;4.90;1.17;;;2.60;99.90;;;;;;5069471;28;20465;-67
2022/02/07 06:09:22;;;;;;;2.93;1.10;;;2.60;99.90;;;;;;5069235;28;20483;-66
2022/02/07 06:11:49;;;;;;;8.30;1.63;;;2.60;99.90;;;;;;5069235;28;20847;-66
2022/02/07 06:14:18;;;;;;;4.23;1.33;;;2.60;99.90;;;;;;5069019;28;20447;-67
2022/02/07 06:16:44;;;;;;;3.33;1.53;;;2.70;99.90;;;;;;5069201;28;20534;-66
2022/02/07 06:19:11;;;;;;;4.07;1.20;;;2.80;99.90;;;;;;5066381;28;20488;-65
2022/02/07 06:21:39;;;;;;;3.20;1.20;;;2.80;99.90;;;;;;5066502;28;20972;-67
2022/02/07 06:24:06;;;;;;;3.60;1.13;;;2.80;99.90;;;;;;5067074;28;20891;-66
2022/02/07 06:26:34;;;;;;;3.30;1.50;;;2.80;99.90;;;;;;5069449;28;20447;-66
2022/02/07 06:29:03;;;;;;;3.03;1.30;;;2.90;99.90;;;;;;5077318;28;20997;-67
2022/02/07 06:31:31;;;;;;;5.20;1.20;;;2.90;99.90;;;;;;5083732;28;20970;-66
2022/02/07 06:33:58;;;;;;;5.57;1.50;;;2.90;99.90;;;;;;5084245;28;20501;-66
2022/02/07 06:36:25;;;;;;;4.70;1.17;;;3.00;99.90;;;;;;5085897;28;20437;-66
2022/02/07 06:38:52;;;;;;;2.20;1.20;;;3.00;99.90;;;;;;5069902;28;20486;-68
2022/02/07 06:41:19;;;;;;;5.97;1.47;;;3.00;99.90;;;;;;5082573;28;20721;-66
2022/02/07 06:43:47;;;;;;;4.90;1.20;;;3.00;99.90;;;;;;5075028;28;20963;-67
2022/02/07 06:46:14;;;;;;;6.07;1.67;;;3.00;99.90;;;;;;5078036;28;20834;-64
2022/02/07 06:48:42;;;;;;;2.90;1.20;;;2.90;99.90;;;;;;5088629;28;20454;-65
2022/02/07 06:51:11;;;;;;;4.40;1.60;;;2.80;99.90;;;;;;5071320;28;20446;-65
2022/02/07 06:53:38;;;;;;;4.67;2.03;;;2.90;99.90;;;;;;5070426;28;20543;-66
2022/02/07 06:56:07;;;;;;;2.97;1.30;;;2.90;99.90;;;;;;5081852;28;20441;-64
2022/02/07 06:58:34;;;;;;;4.00;1.60;;;3.00;99.90;;;;;;5091185;28;20504;-63
2022/02/07 07:01:03;;;;;;;3.07;1.50;;;3.00;99.90;;;;;;5066320;28;20464;-65
2022/02/07 07:03:33;;;;;;;5.03;1.70;;;3.00;99.90;;;;;;5059863;28;20533;-65
2022/02/07 07:06:01;;;;;;;3.27;1.60;;;3.10;99.90;;;;;;5068518;28;20454;-65
2022/02/07 07:08:28;;;;;;;2.70;1.37;;;3.10;99.90;;;;;;5069727;28;20831;-65
2022/02/07 07:10:58;;;;;;;6.93;1.87;;;3.20;99.90;;;;;;5069325;28;20503;-64
2022/02/07 07:13:36;;;;;;;7.80;1.63;;;3.20;99.90;;;;;;5069949;28;20450;-67
2022/02/07 07:16:15;;;;;;;3.40;1.10;;;3.30;99.90;;;;;;5070460;28;20453;-65
2022/02/07 07:18:44;;;;;;;7.60;1.63;;;3.30;99.90;;;;;;5069723;28;20487;-66
2022/02/07 07:21:12;;;;;;;3.57;1.50;;;3.30;99.90;;;;;;5070853;28;21168;-66
2022/02/07 07:23:39;;;;;;;4.40;1.77;;;3.30;99.90;;;;;;5072301;28;20443;-65
2022/02/07 07:26:07;;;;;;;4.90;1.40;;;3.20;99.90;;;;;;5072485;28;20458;-65
2022/02/07 07:28:34;;;;;;;7.37;1.67;;;3.20;99.90;;;;;;5072084;28;20490;-67
2022/02/07 07:31:04;;;;;;;4.03;1.37;;;3.10;99.90;;;;;;5072269;28;20447;-67
2022/02/07 07:33:32;;;;;;;3.80;1.83;;;3.10;99.90;;;;;;5072087;28;20520;-65
2022/02/07 07:35:59;;;;;;;3.67;1.30;;;3.00;99.90;;;;;;5072008;28;21223;-65
2022/02/07 07:38:27;;;;;;;4.60;1.63;;;3.00;99.90;;;;;;5071783;28;20552;-67
2022/02/07 07:40:54;;;;;;;3.87;1.80;;;3.00;99.90;;;;;;5072121;28;20490;-66
2022/02/07 07:43:22;;;;;;;4.37;1.43;;;3.00;99.90;;;;;;5071899;28;20525;-66
2022/02/07 07:45:57;;;;;;;4.53;2.23;;;3.10;99.90;;;;;;5071901;28;20895;-66
2022/02/07 07:48:26;;;;;;;4.37;1.50;;;3.00;99.90;;;;;;5071378;28;20474;-67
2022/02/07 07:50:53;;;;;;;3.17;1.30;;;3.10;99.90;;;;;;5072000;28;20447;-66
2022/02/07 07:53:28;;;;;;;3.73;1.43;;;3.10;99.90;;;;;;5071971;28;20447;-66
2022/02/07 08:01:40;;;;;;;10.03;2.17;;;3.20;99.90;;;;;;5072139;28;20504;-65
2022/02/07 08:04:12;;;;;;;7.33;2.07;;;3.30;99.90;;;;;;5072277;28;20451;-65
2022/02/07 08:06:51;;;;;;;6.10;2.57;;;3.30;99.90;;;;;;5072217;28;20489;-66
2022/02/07 08:09:34;;;;;;;5.83;2.03;;;3.40;99.90;;;;;;5071267;28;20467;-64
2022/02/07 08:12:04;;;;;;;5.00;1.97;;;3.40;99.90;;;;;;5071859;28;20955;-66
2022/02/07 08:14:35;;;;;;;5.73;2.20;;;3.40;99.90;;;;;;5071745;28;20503;-66
2022/02/07 08:17:02;;;;;;;5.90;1.80;;;3.40;99.90;;;;;;5071446;28;21135;-64
2022/02/07 08:19:30;;;;;;;4.93;1.50;;;3.30;99.90;;;;;;5071017;28;20999;-64
2022/02/07 08:21:57;;;;;;;4.80;1.70;;;3.30;99.90;;;;;;5071211;28;20453;-65
2022/02/07 08:24:24;;;;;;;5.10;1.87;;;3.30;99.90;;;;;;5071222;28;20454;-67
2022/02/07 08:26:53;;;;;;;6.20;1.50;;;3.40;99.90;;;;;;5071255;28;21040;-65
2022/02/07 08:29:22;;;;;;;4.83;1.90;;;3.50;99.90;;;;;;5070800;28;20463;-67
2022/02/07 08:31:49;;;;;;;5.40;1.50;;;3.50;99.90;;;;;;5071135;28;20447;-66
2022/02/07 08:34:16;;;;;;;5.50;1.97;;;3.50;99.90;;;;;;5070938;28;20451;-66
2022/02/07 08:36:43;;;;;;;8.33;2.20;;;3.60;99.90;;;;;;5071135;28;20470;-65
2022/02/07 08:39:10;;;;;;;6.50;1.73;;;3.70;99.90;;;;;;5070580;28;20568;-66
2022/02/07 08:41:37;;;;;;;11.07;2.90;;;3.70;99.90;;;;;;5070723;28;20482;-65
2022/02/07 08:44:05;;;;;;;6.40;1.97;;;3.70;99.90;;;;;;5070767;28;20453;-64
2022/02/07 08:46:33;;;;;;;4.37;1.40;;;3.70;99.90;;;;;;5070683;28;20566;-65
2022/02/07 08:49:02;;;;;;;4.40;1.60;;;3.80;99.90;;;;;;5070404;28;20976;-66
2022/02/07 08:51:31;;;;;;;4.47;1.50;;;3.90;99.90;;;;;;5070732;28;20455;-66
2022/02/07 08:54:01;;;;;;;6.37;1.70;;;3.90;99.90;;;;;;5070797;28;20884;-65
2022/02/07 08:56:39;;;;;;;5.73;2.00;;;4.00;99.90;;;;;;5070725;28;20455;-65
2022/02/07 08:59:06;;;;;;;3.63;1.70;;;4.20;99.90;;;;;;5070020;28;20582;-66
2022/02/07 09:01:45;;;;;;;8.87;2.00;;;4.50;99.90;;;;;;5070435;28;20528;-65
2022/02/07 09:07:07;;;;;;;4.80;1.63;;;4.70;99.90;;;;;;5059222;28;21113;-67
2022/02/07 09:09:36;;;;;;;5.23;1.30;;;4.70;99.90;;;;;;5070137;28;21010;-66
2022/02/07 09:12:03;;;;;;;7.87;2.03;;;4.70;99.90;;;;;;5070225;28;20500;-66
2022/02/07 09:14:30;;;;;;;4.30;1.80;;;4.70;99.90;;;;;;5070056;28;20498;-66
2022/02/07 09:16:58;;;;;;;8.77;1.47;;;4.70;99.90;;;;;;5070258;28;20489;-66
2022/02/07 09:19:25;;;;;;;3.50;1.73;;;4.70;99.90;;;;;;5069369;28;20570;-65
2022/02/07 09:21:52;;;;;;;4.63;1.80;;;4.70;99.90;;;;;;5069914;28;20465;-67
2022/02/07 09:24:19;;;;;;;2.87;1.30;;;4.70;99.90;;;;;;5070321;28;20879;-66
2022/02/07 09:26:46;;;;;;;5.20;1.77;;;4.70;99.90;;;;;;5070188;28;20530;-65
2022/02/07 09:29:13;;;;;;;5.10;1.50;;;4.70;99.90;;;;;;5069759;28;20653;-66
2022/02/07 09:31:39;;;;;;;5.97;1.80;;;4.70;99.90;;;;;;5070238;28;20451;-65
2022/02/07 09:34:08;;;;;;;5.30;2.00;;;4.80;99.90;;;;;;5069890;28;20443;-64
2022/02/07 09:36:36;;;;;;;6.03;1.87;;;4.80;99.90;;;;;;5069765;28;20455;-65
2022/02/07 09:39:05;;;;;;;4.00;1.60;;;4.80;99.90;;;;;;5070716;28;20478;-66
2022/02/07 09:41:33;;;;;;;6.57;2.00;;;4.90;99.90;;;;;;5073650;28;20479;-65
2022/02/07 09:44:02;;;;;;;5.63;3.03;;;5.00;99.90;;;;;;5070715;28;20447;-64
2022/02/07 09:46:43;;;;;;;5.57;2.60;;;5.10;99.90;;;;;;5069845;28;21036;-66
2022/02/07 09:49:13;;;;;;;6.67;1.80;;;5.10;99.90;;;;;;5069514;28;20524;-64
2022/02/07 09:51:42;;;;;;;4.00;1.77;;;5.10;99.90;;;;;;5070138;28;20479;-66
2022/02/07 09:54:09;;;;;;;4.27;1.37;;;5.20;99.90;;;;;;5070017;28;20479;-65
2022/02/07 09:56:36;;;;;;;6.87;1.77;;;5.10;99.90;;;;;;5069698;28;20443;-66
2022/02/07 09:59:04;;;;;;;7.73;2.10;;;5.20;99.90;;;;;;5069057;28;20495;-63
2022/02/07 10:01:35;;;;;;;6.43;2.03;;;5.30;99.90;;;;;;5069851;28;20446;-65
2022/02/07 10:04:05;;;;;;;3.23;1.77;;;5.30;99.90;;;;;;5070068;28;20455;-67
2022/02/07 10:06:55;;;;;;;8.47;1.80;;;5.50;99.90;;;;;;5069813;28;20477;-66
2022/02/07 10:09:39;;;;;;;3.73;2.20;;;5.60;99.90;;;;;;5069547;28;20506;-65
2022/02/07 10:12:25;;;;;;;8.27;2.03;;;5.60;99.90;;;;;;5071769;28;20447;-66
2022/02/07 10:15:05;;;;;;;7.17;2.40;;;5.60;99.90;;;;;;5071642;28;20450;-66
2022/02/07 10:17:43;;;;;;;3.70;1.63;;;5.60;99.90;;;;;;5071626;28;20467;-67
2022/02/07 10:37:43;;;;;;;4.30;1.73;;;6.00;99.90;;;;;;5069058;28;20410;-67
2022/02/07 10:40:20;;;;;;;7.40;1.77;;;6.20;99.90;;;;;;5068849;28;20563;-66
2022/02/07 10:43:21;;;;;;;7.33;1.80;;;6.50;99.90;;;;;;5069310;28;20508;-66
2022/02/07 10:46:02;;;;;;;5.87;2.00;;;6.60;99.90;;;;;;5069162;28;20466;-66
2022/02/07 10:48:39;;;;;;;4.97;2.00;;;6.50;99.90;;;;;;5068900;28;20467;-64
2022/02/07 10:51:08;;;;;;;3.57;1.87;;;6.80;99.90;;;;;;5068909;28;20443;-67
2022/02/07 10:53:37;;;;;;;6.13;2.83;;;7.20;99.90;;;;;;5068746;28;20447;-67
2022/02/07 10:56:05;;;;;;;5.83;1.70;;;7.90;99.90;;;;;;5069017;28;20454;-66
2022/02/07 10:58:33;;;;;;;4.00;1.73;;;8.30;99.90;;;;;;5068512;28;20572;-66
2022/02/07 11:01:07;;;;;;;7.90;2.47;;;8.40;99.90;;;;;;5068877;28;20527;-66
2022/02/07 11:03:40;;;;;;;6.03;1.50;;;8.60;99.90;;;;;;5068825;28;20552;-66
2022/02/07 11:06:09;;;;;;;6.77;1.90;;;8.10;99.90;;;;;;5068513;28;20461;-67
2022/02/07 11:08:46;;;;;;;6.30;1.63;;;7.70;99.90;;;;;;5068221;28;21029;-67
2022/02/07 11:14:09;;;;;;;5.47;1.90;;;7.20;99.90;;;;;;5067870;28;20469;-67
2022/02/07 11:16:46;;;;;;;5.90;1.60;;;6.90;99.90;;;;;;5068723;28;20496;-65
2022/02/07 11:19:39;;;;;;;5.43;1.40;;;6.60;99.90;;;;;;5068389;28;20490;-66
2022/02/07 11:22:22;;;;;;;5.40;1.80;;;6.50;99.90;;;;;;5068841;28;20479;-65
2022/02/07 11:25:02;;;;;;;7.27;2.07;;;6.30;99.90;;;;;;5068607;28;20450;-66
2022/02/07 11:27:40;;;;;;;4.43;1.57;;;6.10;99.90;;;;;;5068357;28;20471;-66
2022/02/07 11:30:10;;;;;;;3.27;1.37;;;6.10;99.90;;;;;;5068695;28;20470;-65
2022/02/07 11:32:54;;;;;;;5.20;2.47;;;6.00;99.90;;;;;;5068543;28;20443;-65
2022/02/07 11:35:23;;;;;;;5.13;1.80;;;5.90;99.90;;;;;;5068488;28;20435;-65
2022/02/07 11:37:52;;;;;;;5.20;1.70;;;5.80;99.90;;;;;;5067992;28;20459;-65
2022/02/07 11:40:27;;;;;;;5.20;1.40;;;5.80;99.90;;;;;;5068283;28;20479;-65
2022/02/07 11:43:09;;;;;;;7.50;2.53;;;5.80;99.90;;;;;;5068727;28;20447;-66
2022/02/07 11:45:53;;;;;;;5.53;1.47;;;5.80;99.90;;;;;;5072093;28;20549;-66
2022/02/07 11:48:31;;;;;;;5.57;2.03;;;5.80;99.90;;;;;;5071669;28;20465;-67
2022/02/07 11:51:01;;;;;;;4.50;1.70;;;5.80;99.90;;;;;;5071955;28;21068;-65
2022/02/07 11:53:32;;;;;;;5.13;1.80;;;5.80;99.90;;;;;;5071968;28;20894;-64
2022/02/07 11:56:08;;;;;;;5.03;1.67;;;5.80;99.90;;;;;;5071996;28;20627;-66
2022/02/07 11:58:48;;;;;;;8.27;3.20;;;5.80;99.90;;;;;;5071471;28;20474;-65
2022/02/07 12:01:23;;;;;;;5.30;1.80;;;5.80;99.90;;;;;;5071846;28;20458;-67
2022/02/07 12:03:53;;;;;;;5.00;1.97;;;5.80;99.90;;;;;;5072062;28;20473;-65
2022/02/07 12:06:24;;;;;;;6.70;1.57;;;5.90;99.90;;;;;;5072044;28;20447;-65
2022/02/07 12:08:53;;;;;;;6.03;1.83;;;5.90;99.90;;;;;;5071532;28;20486;-66
2022/02/07 12:11:20;;;;;;;4.53;2.50;;;5.90;99.90;;;;;;5071933;28;20500;-66
2022/02/07 12:13:48;;;;;;;6.03;2.10;;;5.90;99.90;;;;;;5071709;28;20458;-64
2022/02/07 12:16:18;;;;;;;4.10;1.63;;;6.00;99.90;;;;;;5071586;28;20505;-65
2022/02/07 12:19:09;;;;;;;2.83;1.33;;;6.10;99.90;;;;;;5071299;28;20462;-66
2022/02/07 12:21:36;;;;;;;5.00;2.37;;;6.10;99.90;;;;;;5070480;28;20955;-65
2022/02/07 12:24:05;;;;;;;8.60;2.10;;;6.00;99.90;;;;;;5069421;28;20533;-66
2022/02/07 12:26:40;;;;;;;4.77;1.93;;;6.00;99.90;;;;;;5070690;28;20895;-65
2022/02/07 12:29:20;;;;;;;3.83;1.60;;;6.10;99.90;;;;;;5070696;28;20458;-65
2022/02/07 12:31:46;;;;;;;3.60;1.57;;;6.10;99.90;;;;;;5071074;28;20457;-65
2022/02/07 12:34:15;;;;;;;7.30;1.73;;;6.20;99.90;;;;;;5071205;28;20826;-65
2022/02/07 12:36:42;;;;;;;5.97;1.70;;;6.30;99.90;;;;;;5071008;28;21088;-65
2022/02/07 12:39:13;;;;;;;5.57;1.97;;;6.40;99.90;;;;;;5070390;28;20532;-65
2022/02/07 12:41:40;;;;;;;3.50;1.87;;;6.40;99.90;;;;;;5070791;28;20944;-66
2022/02/07 12:44:11;;;;;;;6.90;1.63;;;6.30;99.90;;;;;;5070680;28;20454;-66
2022/02/07 12:46:44;;;;;;;4.47;2.20;;;6.30;99.90;;;;;;5070612;28;20491;-65
2022/02/07 12:49:13;;;;;;;7.03;1.67;;;6.30;99.90;;;;;;5070420;28;20589;-65
2022/02/07 12:51:43;;;;;;;3.57;1.83;;;6.40;99.90;;;;;;5070816;28;20447;-65
2022/02/07 12:54:11;;;;;;;5.13;1.87;;;6.30;99.90;;;;;;5070708;28;20834;-65
2022/02/07 12:56:39;;;;;;;4.80;1.90;;;6.30;99.90;;;;;;5070571;28;20828;-64
2022/02/07 12:59:06;;;;;;;6.70;1.87;;;6.40;99.90;;;;;;5054603;28;21138;-64
2022/02/07 13:01:39;;;;;;;5.03;2.00;;;6.30;99.90;;;;;;5068009;28;20431;-64
2022/02/07 13:04:08;;;;;;;6.23;2.50;;;6.30;99.90;;;;;;5080097;28;20435;-65
2022/02/07 13:06:36;;;;;;;6.27;1.63;;;6.30;99.90;;;;;;5068538;28;20439;-64
2022/02/07 13:09:11;;;;;;;3.70;1.60;;;6.40;99.90;;;;;;5067697;28;20474;-64
2022/02/07 13:11:46;;;;;;;3.87;2.00;;;6.50;99.90;;;;;;5068933;28;20450;-65
2022/02/07 13:14:14;;;;;;;7.17;2.17;;;6.40;99.90;;;;;;5067830;28;20538;-64
2022/02/07 13:16:42;;;;;;;4.23;2.07;;;6.40;99.90;;;;;;5068875;28;20458;-64
2022/02/07 13:19:11;;;;;;;9.30;2.60;;;6.50;99.90;;;;;;5068533;28;20547;-64
2022/02/07 13:21:42;;;;;;;7.27;3.20;;;6.50;99.90;;;;;;5068927;28;20451;-64
2022/02/07 13:24:12;;;;;;;7.40;1.90;;;6.50;99.90;;;;;;5069261;28;20537;-64
2022/02/07 13:26:39;;;;;;;5.87;2.30;;;6.50;99.90;;;;;;5069126;28;20447;-63
2022/02/07 13:29:06;;;;;;;8.40;3.37;;;6.40;99.90;;;;;;5069253;28;20467;-65
2022/02/07 13:31:38;;;;;;;5.70;2.47;;;6.30;99.90;;;;;;5068628;28;20454;-65
2022/02/07 13:34:21;;;;;;;3.20;1.70;;;6.30;99.90;;;;;;5069763;28;20498;-65
2022/02/07 13:36:51;;;;;;;7.43;2.00;;;6.30;99.90;;;;;;5070082;28;20447;-65
2022/02/07 13:39:19;;;;;;;3.87;1.90;;;6.30;99.90;;;;;;5069510;28;20570;-66
2022/02/07 13:42:04;;;;;;;6.13;2.03;;;6.30;99.90;;;;;;5069660;28;20443;-65
2022/02/07 13:44:32;;;;;;;8.53;2.10;;;6.30;99.90;;;;;;5059057;28;20956;-64
2022/02/07 13:47:04;;;;;;;3.80;1.90;;;6.30;99.90;;;;;;5081732;28;20535;-64
2022/02/07 13:49:32;;;;;;;5.60;1.70;;;6.30;99.90;;;;;;5072015;28;20470;-64
2022/02/07 13:51:59;;;;;;;4.70;1.53;;;6.20;99.90;;;;;;5070926;28;21261;-65
2022/02/07 13:54:30;;;;;;;5.13;2.10;;;6.20;99.90;;;;;;5079481;28;20435;-65
2022/02/07 13:56:59;;;;;;;4.87;1.93;;;6.20;99.90;;;;;;5067273;28;21023;-65
2022/02/07 13:59:26;;;;;;;6.70;1.90;;;6.20;99.90;;;;;;5061150;28;20478;-65
2022/02/07 14:01:53;;;;;;;5.63;2.03;;;6.20;99.90;;;;;;5066678;28;20454;-65
2022/02/07 14:04:24;;;;;;;9.80;2.83;;;6.30;99.90;;;;;;5067367;28;20987;-66
2022/02/07 14:07:16;;;;;;;5.00;1.70;;;6.40;99.90;;;;;;5066696;28;20451;-66
2022/02/07 14:09:43;;;;;;;6.93;2.10;;;6.50;99.90;;;;;;5066817;28;20458;-65
2022/02/07 14:12:13;;;;;;;2.67;1.73;;;6.50;99.90;;;;;;5066623;28;20444;-65
2022/02/07 14:14:40;;;;;;;5.73;2.60;;;6.50;99.90;;;;;;5067204;28;20516;-65
2022/02/07 14:17:07;;;;;;;3.80;1.67;;;6.40;99.90;;;;;;5066794;28;20454;-67
2022/02/07 14:19:39;;;;;;;5.47;2.17;;;6.40;99.90;;;;;;5067020;28;20466;-66
2022/02/07 14:22:06;;;;;;;3.30;1.90;;;6.40;99.90;;;;;;5062529;28;20457;-66
2022/02/07 14:24:34;;;;;;;3.60;1.47;;;6.60;99.90;;;;;;5065901;28;20450;-67
2022/02/07 14:27:02;;;;;;;5.90;2.00;;;6.60;99.90;;;;;;5066615;28;20807;-66
2022/02/07 14:29:28;;;;;;;3.83;1.70;;;6.50;99.90;;;;;;5067257;28;20554;-65
2022/02/07 14:31:56;;;;;;;4.83;2.53;;;6.40;99.90;;;;;;5066650;28;20504;-67
2022/02/07 14:34:23;;;;;;;5.30;2.23;;;6.30;99.90;;;;;;5067684;28;20526;-65
2022/02/07 14:36:50;;;;;;;4.83;2.10;;;6.10;99.90;;;;;;5067167;28;21215;-66
2022/02/07 14:39:17;;;;;;;4.50;1.70;;;6.10;99.90;;;;;;5066428;28;20501;-65
2022/02/07 14:41:47;;;;;;;5.00;1.47;;;6.00;99.90;;;;;;5066754;28;20483;-66
2022/02/07 14:44:21;;;;;;;5.20;2.30;;;6.00;99.90;;;;;;5067850;28;20904;-66
2022/02/07 14:47:01;;;;;;;4.17;1.90;;;6.10;99.90;;;;;;5067534;28;20481;-67
2022/02/07 14:49:28;;;;;;;6.17;1.97;;;6.10;99.90;;;;;;5074236;28;20554;-68
2022/02/07 14:51:56;;;;;;;4.40;2.03;;;6.10;99.90;;;;;;5069887;28;20537;-64